createdAt,value
2022-11-14T00:02:32.093Z,13.63
2022-11-14T00:05:39.498Z,13.30
2022-11-14T00:08:42.416Z,12.43
2022-11-14T00:11:45.493Z,11.13
2022-11-14T00:14:48.637Z,12.17
2022-11-14T00:17:53.234Z,11.77
2022-11-14T00:20:56.419Z,12.23
2022-11-14T00:23:59.318Z,11.77
2022-11-14T00:27:02.212Z,11.77
2022-11-14T00:30:06.026Z,10.83
2022-11-14T00:33:18.756Z,13.33
2022-11-14T00:36:23.109Z,12.50
2022-11-14T00:39:26.102Z,12.53
2022-11-14T00:42:29.036Z,12.23
2022-11-14T00:45:31.920Z,11.07
2022-11-14T00:48:36.303Z,13.60
2022-11-14T00:51:39.188Z,11.63
2022-11-14T00:54:42.069Z,11.53
2022-11-14T00:57:45.258Z,12.10
2022-11-14T01:00:48.396Z,11.67
2022-11-14T01:03:53.272Z,10.70
2022-11-14T01:06:56.175Z,10.67
2022-11-14T01:09:59.231Z,10.83
2022-11-14T01:13:02.107Z,10.37
2022-11-14T01:16:05.438Z,11.73
2022-11-14T01:19:10.086Z,11.13
2022-11-14T01:22:12.963Z,10.67
2022-11-14T01:25:15.958Z,11.13
2022-11-14T01:28:20.633Z,9.97
2022-11-14T01:31:25.582Z,10.57
2022-11-14T01:34:30.389Z,10.70
2022-11-14T01:37:33.305Z,10.93
2022-11-14T01:40:41.930Z,10.67
2022-11-14T01:43:44.937Z,9.50
2022-11-14T01:46:53.049Z,9.23
2022-11-14T01:50:00.445Z,8.37
2022-11-14T01:53:03.629Z,8.70
2022-11-14T01:56:08.417Z,8.23
2022-11-14T01:59:14.681Z,7.37
2022-11-14T02:02:19.718Z,6.83
2022-11-14T02:05:24.540Z,8.27
2022-11-14T02:08:27.887Z,8.47
2022-11-14T02:11:33.828Z,7.60
2022-11-14T02:14:38.593Z,8.73
2022-11-14T02:17:42.572Z,8.53
2022-11-14T02:20:46.916Z,9.17
2022-11-14T02:23:49.794Z,10.17
2022-11-14T02:26:52.672Z,8.23
2022-11-14T02:29:55.590Z,8.57
2022-11-14T02:33:13.721Z,6.87
2022-11-14T02:36:18.060Z,7.03
2022-11-14T02:39:21.047Z,6.50
2022-11-14T02:42:23.943Z,6.73
2022-11-14T02:45:26.944Z,6.30
2022-11-14T02:48:30.132Z,6.13
2022-11-14T02:51:34.696Z,4.93
2022-11-14T02:54:37.607Z,5.53
2022-11-14T02:57:40.502Z,5.60
2022-11-14T03:01:06.025Z,5.70
2022-11-14T03:04:06.668Z,5.20
2022-11-14T03:07:11.206Z,4.60
2022-11-14T03:10:14.617Z,5.13
2022-11-14T03:13:17.513Z,5.20
2022-11-14T03:16:20.804Z,6.13
2022-11-14T03:19:23.710Z,5.70
2022-11-14T03:22:28.277Z,5.70
2022-11-14T03:25:31.209Z,4.60
2022-11-14T03:28:34.443Z,5.50
2022-11-14T03:31:37.384Z,6.47
2022-11-14T03:34:40.284Z,6.50
2022-11-14T03:37:44.561Z,6.27
2022-11-14T03:40:47.440Z,6.60
2022-11-14T03:43:50.356Z,6.03
2022-11-14T03:46:53.504Z,6.40
2022-11-14T03:49:56.372Z,6.47
2022-11-14T03:53:00.617Z,7.30
2022-11-14T03:56:03.550Z,6.47
2022-11-14T03:59:06.476Z,7.00
2022-11-14T04:02:09.382Z,7.13
2022-11-14T04:05:12.365Z,6.50
2022-11-14T04:08:16.639Z,6.60
2022-11-14T04:11:19.798Z,5.63
2022-11-14T04:14:22.704Z,6.07
2022-11-14T04:17:25.647Z,6.23
2022-11-14T04:20:28.545Z,5.67
2022-11-14T04:23:32.801Z,5.67
2022-11-14T04:26:35.726Z,6.10
2022-11-14T04:29:38.603Z,6.03
2022-11-14T04:32:41.485Z,5.63
2022-11-14T04:35:44.387Z,4.93
2022-11-14T04:38:48.654Z,5.33
2022-11-14T04:41:51.548Z,5.63
2022-11-14T04:44:54.495Z,5.50
2022-11-14T04:47:57.452Z,5.40
2022-11-14T04:51:00.375Z,5.43
2022-11-14T04:54:04.861Z,5.17
2022-11-14T04:57:07.762Z,5.40
2022-11-14T05:00:12.276Z,6.10
2022-11-14T05:03:15.204Z,5.50
2022-11-14T05:06:18.145Z,5.23
2022-11-14T05:09:22.397Z,6.37
2022-11-14T05:12:25.290Z,5.87
2022-11-14T05:15:28.201Z,6.80
2022-11-14T05:18:31.347Z,6.90
2022-11-14T05:21:34.511Z,7.00
2022-11-14T05:24:38.818Z,7.10
2022-11-14T05:27:41.722Z,7.70
2022-11-14T05:30:44.647Z,7.57
2022-11-14T05:33:48.142Z,7.97
2022-11-14T05:36:51.081Z,6.07
2022-11-14T05:39:55.316Z,7.23
2022-11-14T05:42:58.240Z,6.43
2022-11-14T05:46:01.882Z,6.67
2022-11-14T05:49:04.937Z,6.77
2022-11-14T05:52:07.840Z,6.23
2022-11-14T05:55:12.229Z,7.20
2022-11-14T05:58:15.166Z,6.80
2022-11-14T06:01:19.962Z,6.00
2022-11-14T06:04:23.260Z,7.10
2022-11-14T06:07:26.213Z,6.73
2022-11-14T06:10:30.804Z,8.20
2022-11-14T06:13:33.989Z,7.60
2022-11-14T06:16:37.044Z,6.73
2022-11-14T06:19:40.144Z,6.80
2022-11-14T06:22:43.028Z,8.40
2022-11-14T06:25:47.280Z,7.20
2022-11-14T06:28:50.809Z,7.90
2022-11-14T06:31:53.691Z,8.47
2022-11-14T06:34:56.695Z,9.03
2022-11-14T06:38:00.901Z,9.60
2022-11-14T06:41:06.116Z,9.93
2022-11-14T06:44:09.720Z,9.87
2022-11-14T06:47:12.588Z,9.77
2022-11-14T06:50:15.676Z,10.50
2022-11-14T06:53:18.557Z,10.10
2022-11-14T06:56:22.787Z,10.37
2022-11-14T06:59:25.704Z,8.57
2022-11-14T07:02:28.568Z,9.47
2022-11-14T07:05:31.949Z,9.20
2022-11-14T07:08:36.154Z,10.43
2022-11-14T07:11:40.537Z,9.23
2022-11-14T07:14:43.469Z,11.37
2022-11-14T07:17:48.464Z,11.27
2022-11-14T07:20:51.394Z,11.03
2022-11-14T07:23:54.562Z,9.67
2022-11-14T07:26:58.823Z,8.83
2022-11-14T07:30:01.714Z,8.67
2022-11-14T07:33:04.729Z,10.87
2022-11-14T07:36:08.320Z,9.13
2022-11-14T07:39:11.216Z,9.83
2022-11-14T07:42:15.445Z,9.77
2022-11-14T07:45:20.001Z,10.30
2022-11-14T07:48:23.606Z,10.10
2022-11-14T07:51:26.488Z,10.03
2022-11-14T07:54:29.439Z,9.80
2022-11-14T07:57:38.936Z,9.27
2022-11-14T08:00:44.352Z,10.37
2022-11-14T08:03:47.317Z,9.77
2022-11-14T08:06:50.332Z,10.03
2022-11-14T08:09:53.460Z,9.43
2022-11-14T08:13:25.212Z,11.50
2022-11-14T08:16:24.361Z,11.73
2022-11-14T08:19:27.293Z,11.53
2022-11-14T08:22:31.146Z,11.63
2022-11-14T08:25:34.697Z,10.67
2022-11-14T08:28:39.073Z,11.47
2022-11-14T08:31:41.956Z,12.03
2022-11-14T08:34:44.963Z,11.80
2022-11-14T08:37:47.881Z,13.60
2022-11-14T08:40:50.830Z,13.27
2022-11-14T08:43:55.174Z,12.27
2022-11-14T08:47:00.261Z,12.33
2022-11-14T08:50:03.314Z,12.17
2022-11-14T08:53:06.216Z,12.23
2022-11-14T08:56:10.663Z,11.77
2022-11-14T08:59:14.947Z,12.80
2022-11-14T09:02:18.396Z,14.23
2022-11-14T09:05:21.465Z,12.83
2022-11-14T09:08:24.816Z,13.63
2022-11-14T09:11:27.699Z,12.33
2022-11-14T09:14:31.968Z,13.17
2022-11-14T09:17:35.287Z,12.83
2022-11-14T09:20:40.277Z,13.53
2022-11-14T09:23:43.494Z,12.87
2022-11-14T09:26:46.385Z,12.90
2022-11-14T09:29:50.646Z,11.53
2022-11-14T09:32:53.577Z,10.83
2022-11-14T09:35:58.363Z,12.50
2022-11-14T09:39:01.267Z,11.47
2022-11-14T09:42:26.833Z,10.93
2022-11-14T09:45:31.801Z,10.10
2022-11-14T09:48:34.783Z,10.70
2022-11-14T09:51:44.677Z,11.30
2022-11-14T09:54:53.184Z,11.80
2022-11-14T09:57:57.229Z,9.73
2022-11-14T10:01:09.594Z,13.20
2022-11-14T10:04:21.997Z,12.50
2022-11-14T10:07:35.184Z,11.80
2022-11-14T10:10:52.299Z,12.07
2022-11-14T10:14:26.989Z,12.73
2022-11-14T10:17:51.712Z,13.03
2022-11-14T10:20:56.666Z,11.40
2022-11-14T10:24:07.957Z,12.13
2022-11-14T10:27:18.585Z,12.97
2022-11-14T10:30:21.804Z,15.20
2022-11-14T10:33:38.017Z,16.37
2022-11-14T10:36:51.142Z,15.17
2022-11-14T10:39:56.490Z,15.13
2022-11-14T10:43:04.865Z,14.23
2022-11-14T10:46:14.389Z,12.87
2022-11-14T10:49:21.732Z,13.10
2022-11-14T10:52:37.292Z,12.03
2022-11-14T10:56:03.053Z,11.00
2022-11-14T10:59:03.158Z,10.03
2022-11-14T11:02:06.242Z,9.20
2022-11-14T11:05:16.780Z,8.93
2022-11-14T11:08:44.323Z,8.30
2022-11-14T11:11:56.335Z,8.33
2022-11-14T11:15:15.934Z,7.27
2022-11-14T11:18:28.276Z,7.20
2022-11-14T11:21:48.642Z,8.07
2022-11-14T11:24:51.638Z,10.33
2022-11-14T11:28:12.155Z,10.47
2022-11-14T11:31:15.081Z,11.97
2022-11-14T11:34:26.704Z,10.83
2022-11-14T11:37:33.827Z,12.13
2022-11-14T11:40:36.833Z,13.33
2022-11-14T11:43:44.732Z,11.33
2022-11-14T11:46:54.325Z,11.30
2022-11-14T11:50:02.302Z,10.67
2022-11-14T11:53:17.521Z,11.20
2022-11-14T11:56:26.050Z,10.43
2022-11-14T11:59:34.552Z,10.17
2022-11-14T12:02:46.312Z,9.37
2022-11-14T12:06:04.002Z,9.83
2022-11-14T12:09:16.422Z,8.03
2022-11-14T12:12:32.059Z,9.20
2022-11-14T12:15:46.129Z,9.07
2022-11-14T12:19:09.276Z,7.43
2022-11-14T12:22:42.133Z,7.57
2022-11-14T12:25:58.372Z,6.60
2022-11-14T12:29:16.163Z,5.97
2022-11-14T12:32:29.462Z,6.27
2022-11-14T12:35:35.324Z,5.87
2022-11-14T12:38:45.418Z,4.93
2022-11-14T12:41:49.903Z,4.53
2022-11-14T12:44:53.296Z,4.07
2022-11-14T12:48:16.383Z,5.00
2022-11-14T12:51:52.116Z,5.07
2022-11-14T12:54:55.128Z,4.53
2022-11-14T12:58:08.174Z,4.47
2022-11-14T13:01:25.519Z,4.40
2022-11-14T13:04:40.230Z,4.73
2022-11-14T13:08:00.453Z,4.80
2022-11-14T13:11:58.409Z,4.03
2022-11-14T13:15:42.462Z,4.23
2022-11-14T13:19:11.941Z,4.27
2022-11-14T13:22:37.644Z,3.93
2022-11-14T13:25:40.591Z,4.60
2022-11-14T13:28:49.895Z,3.87
2022-11-14T13:31:53.032Z,4.10
2022-11-14T13:35:00.721Z,4.23
2022-11-14T13:38:24.209Z,4.40
2022-11-14T13:41:47.974Z,4.77
2022-11-14T13:45:20.591Z,5.00
2022-11-14T13:48:47.606Z,5.93
2022-11-14T13:51:53.520Z,4.97
2022-11-14T13:54:56.952Z,5.77
2022-11-14T13:58:14.729Z,4.60
2022-11-14T14:01:35.928Z,4.37
2022-11-14T14:04:51.360Z,4.33
2022-11-14T14:08:04.854Z,4.70
2022-11-14T14:11:26.953Z,4.57
2022-11-14T14:14:53.645Z,4.73
2022-11-14T14:18:06.673Z,4.93
2022-11-14T14:21:18.446Z,5.83
2022-11-14T14:24:39.378Z,5.33
2022-11-14T14:27:54.984Z,5.03
2022-11-14T14:31:11.478Z,7.83
2022-11-14T14:34:28.437Z,5.47
2022-11-14T14:37:32.448Z,5.33
2022-11-14T14:40:36.976Z,8.57
2022-11-14T14:43:43.119Z,4.87
2022-11-14T14:46:46.095Z,5.27
2022-11-14T14:49:50.374Z,5.40
2022-11-14T14:52:58.412Z,5.27
2022-11-14T14:56:03.285Z,5.07
2022-11-14T14:59:18.215Z,8.60
2022-11-14T15:02:24.388Z,5.23
2022-11-14T15:05:30.601Z,4.93
2022-11-14T15:08:38.474Z,5.23
2022-11-14T15:11:44.056Z,9.10
2022-11-14T15:14:47.600Z,7.07
2022-11-14T15:17:51.856Z,5.27
2022-11-14T15:21:10.032Z,5.17
2022-11-14T15:24:18.137Z,6.13
2022-11-14T15:27:22.233Z,6.33
2022-11-14T15:30:26.820Z,6.47
2022-11-14T15:33:31.473Z,6.50
2022-11-14T15:36:35.788Z,7.20
2022-11-14T15:39:39.015Z,6.33
2022-11-14T15:42:41.933Z,5.97
2022-11-14T15:45:44.839Z,5.80
2022-11-14T15:48:47.762Z,6.90
2022-11-14T15:51:55.211Z,8.07
2022-11-14T15:54:58.103Z,7.70
2022-11-14T15:58:26.440Z,12.83
2022-11-14T16:01:26.072Z,12.70
2022-11-14T16:04:33.303Z,13.20
2022-11-14T16:07:37.671Z,8.40
2022-11-14T16:10:43.738Z,9.00
2022-11-14T16:13:46.693Z,8.40
2022-11-14T16:16:49.654Z,8.90
2022-11-14T16:19:52.539Z,9.00
2022-11-14T16:22:56.978Z,8.63
2022-11-14T16:25:59.933Z,8.93
2022-11-14T16:29:02.848Z,9.90
2022-11-14T16:32:06.170Z,10.67
2022-11-14T16:35:15.328Z,8.67
2022-11-14T16:38:19.683Z,11.90
2022-11-14T16:41:22.559Z,8.33
2022-11-14T16:44:25.557Z,9.20
2022-11-14T16:47:28.604Z,7.53
2022-11-14T16:50:31.515Z,7.93
2022-11-14T16:53:35.948Z,9.87
2022-11-14T16:56:38.912Z,9.67
2022-11-14T16:59:41.925Z,9.80
2022-11-14T17:02:45.690Z,10.17
2022-11-14T17:05:50.084Z,9.27
2022-11-14T17:08:56.240Z,8.13
2022-11-14T17:11:59.135Z,8.00
2022-11-14T17:15:02.048Z,9.03
2022-11-14T17:18:05.836Z,9.70
2022-11-14T17:21:09.858Z,9.67
2022-11-14T17:24:14.188Z,9.07
2022-11-14T17:27:18.272Z,9.87
2022-11-14T17:30:21.261Z,7.87
2022-11-14T17:33:24.166Z,8.27
2022-11-14T17:36:29.616Z,9.10
2022-11-14T17:39:35.204Z,8.67
2022-11-14T17:42:38.100Z,11.37
2022-11-14T17:45:41.407Z,11.40
2022-11-14T17:48:44.962Z,13.37
2022-11-14T17:51:47.951Z,13.37
2022-11-14T17:54:52.553Z,12.87
2022-11-14T17:57:55.446Z,12.27
2022-11-14T18:00:59.043Z,16.07
2022-11-14T18:04:06.140Z,19.47
2022-11-14T18:07:09.506Z,17.30
2022-11-14T18:10:13.900Z,14.00
2022-11-14T18:13:16.792Z,12.97
2022-11-14T18:16:21.088Z,12.40
2022-11-14T18:19:24.019Z,12.80
2022-11-14T18:22:26.989Z,12.40
2022-11-14T18:25:31.736Z,12.67
2022-11-14T18:28:34.637Z,13.10
2022-11-14T18:31:37.558Z,13.40
2022-11-14T18:34:40.778Z,13.60
2022-11-14T18:37:43.689Z,13.30
2022-11-14T18:40:51.699Z,13.00
2022-11-14T18:43:58.079Z,13.23
2022-11-14T18:47:00.987Z,12.77
2022-11-14T18:50:05.037Z,13.67
2022-11-14T18:53:08.325Z,12.87
2022-11-14T18:56:14.584Z,12.37
2022-11-14T18:59:17.856Z,17.63
2022-11-14T19:02:21.407Z,16.27
2022-11-14T19:05:24.700Z,16.77
2022-11-14T19:08:27.906Z,19.20
2022-11-14T19:11:50.225Z,17.63
2022-11-14T19:14:54.072Z,22.27
2022-11-14T19:17:57.286Z,19.83
2022-11-14T19:21:01.935Z,22.77
2022-11-14T19:24:05.369Z,18.23
2022-11-14T19:27:09.737Z,18.27
2022-11-14T19:30:13.204Z,16.63
2022-11-14T19:33:16.433Z,17.23
2022-11-14T19:36:52.688Z,16.77
2022-11-14T19:39:45.105Z,16.97
2022-11-14T19:42:49.415Z,17.80
2022-11-14T19:45:53.107Z,20.27
2022-11-14T19:49:00.208Z,27.00
2022-11-14T19:52:03.113Z,31.00
2022-11-14T19:55:06.395Z,31.90
2022-11-14T19:58:10.661Z,33.60
2022-11-14T20:01:15.367Z,43.63
2022-11-14T20:04:18.362Z,32.57
2022-11-14T20:07:21.562Z,30.40
2022-11-14T20:10:24.512Z,31.83
2022-11-14T20:13:31.770Z,32.40
2022-11-14T20:16:36.861Z,31.17
2022-11-14T20:19:39.824Z,26.33
2022-11-14T20:22:42.758Z,21.90
2022-11-14T20:25:51.382Z,19.90
2022-11-14T20:28:55.992Z,18.13
2022-11-14T20:31:58.907Z,19.67
2022-11-14T20:35:02.109Z,20.83
2022-11-14T20:38:05.531Z,18.20
2022-11-14T20:41:08.650Z,17.90
2022-11-14T20:44:12.948Z,17.97
2022-11-14T20:47:17.341Z,17.83
2022-11-14T20:50:20.481Z,16.63
2022-11-14T20:53:23.383Z,18.70
2022-11-14T20:56:26.292Z,18.83
2022-11-14T20:59:30.560Z,19.57
2022-11-14T21:02:34.015Z,18.93
2022-11-14T21:05:39.673Z,17.60
2022-11-14T21:08:43.323Z,18.20
2022-11-14T21:11:46.220Z,18.47
2022-11-14T21:14:50.477Z,18.67
2022-11-14T21:17:53.362Z,18.47
2022-11-14T21:21:01.116Z,16.70
2022-11-14T21:24:04.298Z,14.67
2022-11-14T21:27:11.325Z,17.30
2022-11-14T21:30:16.004Z,18.50
2022-11-14T21:33:18.929Z,16.03
2022-11-14T21:36:43.705Z,18.80
2022-11-14T21:39:45.092Z,16.63
2022-11-14T21:42:48.055Z,16.80
2022-11-14T21:46:00.303Z,14.97
2022-11-14T21:49:03.423Z,14.83
2022-11-14T21:52:06.407Z,14.13
2022-11-14T21:55:09.498Z,16.37
2022-11-14T21:58:13.072Z,15.73
2022-11-14T22:01:40.396Z,14.80
2022-11-14T22:04:42.540Z,13.67
2022-11-14T22:07:45.605Z,13.57
2022-11-14T22:10:48.541Z,12.10
2022-11-14T22:13:51.681Z,13.03
2022-11-14T22:16:56.007Z,12.97
2022-11-14T22:19:59.172Z,11.40
2022-11-14T22:23:02.112Z,10.10
2022-11-14T22:26:05.535Z,10.60
2022-11-14T22:29:08.932Z,10.13
2022-11-14T22:32:13.157Z,10.97
2022-11-14T22:35:16.599Z,8.77
2022-11-14T22:38:19.530Z,10.33
2022-11-14T22:41:27.755Z,9.10
2022-11-14T22:44:34.625Z,8.87
2022-11-14T22:47:39.393Z,8.77
2022-11-14T22:50:42.283Z,8.73
2022-11-14T22:53:47.374Z,8.00
2022-11-14T22:56:50.264Z,9.33
2022-11-14T22:59:53.165Z,7.77
2022-11-14T23:02:57.396Z,7.93
2022-11-14T23:06:00.319Z,7.47
2022-11-14T23:09:04.926Z,7.00
2022-11-14T23:12:07.960Z,7.33
2022-11-14T23:15:11.393Z,7.43
2022-11-14T23:18:15.936Z,7.47
2022-11-14T23:21:20.272Z,8.90
2022-11-14T23:24:23.190Z,8.80
2022-11-14T23:27:26.071Z,10.80
2022-11-14T23:30:29.002Z,11.87
2022-11-14T23:33:33.741Z,10.63
2022-11-14T23:36:36.965Z,10.70
2022-11-14T23:39:39.871Z,7.77
2022-11-14T23:42:42.771Z,8.77
2022-11-14T23:45:45.676Z,9.70
2022-11-14T23:48:50.766Z,12.20
2022-11-14T23:51:53.696Z,12.07
2022-11-14T23:54:56.572Z,9.67
2022-11-14T23:57:59.454Z,9.50
